Time;durP1;ratioP1;P1;durP2;ratioP2;P2;SDS_P1;SDS_P2;PMS_P1;PMS_P2;Temp;Humidity;BMP_temperature;BMP_pressure;BME280_temperature;BME280_humidity;BME280_pressure;Samples;Min_cycle;Max_cycle;Signal;HPM_P1;HPM_P2
2021/12/01 00:01:03;;;;;;;1.57;1.40;;;;;;;0.85;100.00;-23839.28;5034196;28;20188;-71
2021/12/01 00:03:28;;;;;;;3.10;2.10;;;;;;;1.19;100.00;-23848.88;5034153;28;20177;-70
2021/12/01 00:05:54;;;;;;;1.47;1.30;;;;;;;0.86;100.00;-23839.44;5033659;28;20202;-68
2021/12/01 00:08:20;;;;;;;1.73;1.63;;;;;;;1.25;100.00;-23850.44;5033680;28;20209;-68
2021/12/01 00:10:47;;;;;;;1.80;1.70;;;;;;;0.83;100.00;-23838.59;5033766;28;20170;-70
2021/12/01 00:13:15;;;;;;;1.47;1.40;;;;;;;1.19;100.00;-23848.75;5033615;28;20172;-69
2021/12/01 00:15:43;;;;;;;1.00;1.00;;;;;;;0.99;100.00;-23843.16;5032818;28;20589;-70
2021/12/01 00:18:09;;;;;;;2.90;1.67;;;;;;;1.38;100.00;-23854.16;5033835;28;20721;-69
2021/12/01 00:20:35;;;;;;;1.87;1.63;;;;;;;0.98;100.00;-23842.72;5033563;28;20269;-71
2021/12/01 00:23:00;;;;;;;2.00;1.60;;;;;;;1.16;100.00;-23848.03;5033423;28;20192;-69
2021/12/01 00:25:27;;;;;;;2.40;1.30;;;;;;;1.33;100.00;-23852.75;5033094;28;20202;-71
2021/12/01 00:27:54;;;;;;;1.33;1.23;;;;;;;1.33;100.00;-23852.88;5033544;28;20261;-68
2021/12/01 00:30:21;;;;;;;1.40;1.30;;;;;;;1.30;100.00;-23852.03;5033611;28;20223;-67
2021/12/01 00:32:47;;;;;;;1.50;1.40;;;;;;;1.20;100.00;-23849.16;5033304;28;20303;-67
2021/12/01 00:35:14;;;;;;;1.90;1.60;;;;;;;1.31;100.00;-23852.16;5033533;28;20654;-69
2021/12/01 00:37:40;;;;;;;2.77;2.13;;;;;;;0.95;100.00;-23841.88;5033378;28;20209;-69
2021/12/01 00:40:09;;;;;;;2.53;2.00;;;;;;;0.86;100.00;-23839.59;5033445;28;20181;-68
2021/12/01 00:42:34;;;;;;;1.40;1.30;;;;;;;1.05;100.00;-23844.88;5032557;28;20186;-68
2021/12/01 00:45:07;;;;;;;2.60;1.80;;;;;;;1.10;100.00;-23846.31;5033284;28;20247;-68
2021/12/01 00:47:50;;;;;;;1.43;1.33;;;;;;;0.95;100.00;-23842.00;5033259;28;20301;-68
2021/12/01 00:50:31;;;;;;;1.80;1.30;;;;;;;0.71;100.00;-23835.28;5033060;28;20163;-69
2021/12/01 00:53:00;;;;;;;1.33;1.30;;;;;;;0.93;100.00;-23841.28;5013658;28;20202;-70
2021/12/01 00:55:25;;;;;;;3.10;1.50;;;;;;;0.96;100.00;-23842.31;5013061;28;20670;-67
2021/12/01 00:57:51;;;;;;;1.83;1.70;;;;;;;0.99;100.00;-23843.16;5012246;28;20243;-70
2021/12/01 01:00:19;;;;;;;1.70;1.43;;;;;;;0.55;100.00;-23830.56;5031591;28;20182;-70
2021/12/01 01:02:44;;;;;;;1.50;1.40;;;;;;;0.58;100.00;-23831.44;5029878;28;20607;-68
2021/12/01 01:05:10;;;;;;;1.50;1.40;;;;;;;0.87;100.00;-23839.72;5031495;28;20280;-68
2021/12/01 01:07:36;;;;;;;1.70;1.60;;;;;;;0.85;100.00;-23839.16;5031752;28;20672;-71
2021/12/01 01:10:16;;;;;;;1.33;1.30;;;;;;;0.69;100.00;-23834.72;5033131;28;20177;-72
2021/12/01 01:18:15;;;;;;;1.37;1.27;;;;;;;-0.11;100.00;-23812.09;5050304;28;20199;-68
2021/12/01 01:20:41;;;;;;;1.77;1.50;;;;;;;0.07;100.00;-23816.97;5032328;28;20243;-70
2021/12/01 01:23:06;;;;;;;1.60;1.50;;;;;;;-0.30;100.00;-23806.50;5032535;28;20208;-68
2021/12/01 01:25:32;;;;;;;1.47;1.37;;;;;;;-0.31;100.00;-23806.22;5032504;28;20246;-68
2021/12/01 01:27:57;;;;;;;1.23;1.13;;;;;;;-0.26;100.00;-23807.81;5032117;28;20651;-69
2021/12/01 01:30:23;;;;;;;1.40;1.30;;;;;;;-0.65;100.00;-23796.63;5032549;28;20641;-69
2021/12/01 01:32:49;;;;;;;2.67;1.60;;;;;;;-0.77;100.00;-23793.19;5032431;28;20175;-67
2021/12/01 01:35:14;;;;;;;2.00;1.77;;;;;;;-0.51;100.00;-23800.63;5032312;28;20175;-66
2021/12/01 01:37:40;;;;;;;1.70;1.60;;;;;;;-0.92;100.00;-23789.16;5032493;28;20177;-69
2021/12/01 01:40:07;;;;;;;2.47;1.90;;;;;;;-0.67;100.00;-23796.06;5032265;28;20189;-71
2021/12/01 01:42:32;;;;;;;1.60;1.50;;;;;;;-0.97;100.00;-23787.72;5031937;28;20179;-68
2021/12/01 01:44:58;;;;;;;1.33;1.23;;;;;;;-0.52;100.00;-23800.34;5032209;28;20175;-69
2021/12/01 01:47:23;;;;;;;1.50;1.40;;;;;;;-0.73;100.00;-23794.34;5032443;28;20177;-70
2021/12/01 01:49:55;;;;;;;1.77;1.53;;;;;;;-0.73;100.00;-23794.34;5032281;28;20752;-67
2021/12/01 01:52:20;;;;;;;1.40;1.30;;;;;;;-0.40;100.00;-23803.78;5032331;28;20225;-67
2021/12/01 01:54:46;;;;;;;1.63;1.53;;;;;;;-0.64;100.00;-23796.91;5032153;28;20175;-69
2021/12/01 01:57:11;;;;;;;2.10;1.47;;;;;;;-0.20;100.00;-23809.38;5032436;28;20215;-70
2021/12/01 01:59:37;;;;;;;1.60;1.50;;;;;;;-0.53;100.00;-23800.22;5032397;28;20187;-68
2021/12/01 02:02:04;;;;;;;3.73;1.30;;;;;;;-0.47;100.00;-23801.94;5031319;28;20670;-68
2021/12/01 02:04:33;;;;;;;1.43;1.33;;;;;;;-0.37;100.00;-23804.66;5032062;28;20180;-70
2021/12/01 02:06:59;;;;;;;1.23;1.23;;;;;;;-0.22;100.00;-23808.94;5032082;28;20287;-68
2021/12/01 02:09:25;;;;;;;2.17;1.97;;;;;;;-0.17;100.00;-23810.38;5033295;28;20654;-70
2021/12/01 02:11:53;;;;;;;1.60;1.50;;;;;;;-0.25;100.00;-23808.09;5037079;28;20198;-70
2021/12/01 02:14:18;;;;;;;1.77;1.67;;;;;;;-0.25;100.00;-23807.94;5037428;28;20183;-69
2021/12/01 02:16:44;;;;;;;1.53;1.43;;;;;;;-0.35;100.00;-23805.22;5028326;28;20317;-68
2021/12/01 02:19:10;;;;;;;1.50;1.40;;;;;;;-0.46;100.00;-23802.06;5038243;28;20234;-68
2021/12/01 02:21:35;;;;;;;1.47;1.37;;;;;;;-0.27;100.00;-23807.50;5037985;28;20187;-67
2021/12/01 02:24:08;;;;;;;1.53;1.43;;;;;;;-0.20;100.00;-23809.38;5037373;28;20262;-69
2021/12/01 02:26:38;;;;;;;1.10;1.10;;;;;;;-0.28;100.00;-23807.22;5037313;28;20211;-68
2021/12/01 02:29:06;;;;;;;1.00;1.00;;;;;;;-0.59;100.00;-23798.34;5063637;28;20639;-70
2021/12/01 02:31:36;;;;;;;1.97;1.60;;;;;;;-0.58;100.00;-23798.78;5038397;28;20180;-68
2021/12/01 02:34:07;;;;;;;1.57;1.47;;;;;;;-0.61;100.00;-23797.78;5038456;28;20206;-68
2021/12/01 02:36:33;;;;;;;1.33;1.23;;;;;;;-0.69;100.00;-23795.63;5038197;28;20618;-70
2021/12/01 02:38:59;;;;;;;1.63;1.37;;;;;;;-0.14;100.00;-23811.09;5038618;28;20665;-69
2021/12/01 02:41:30;;;;;;;1.40;1.30;;;;;;;-0.19;100.00;-23809.81;5038718;28;20190;-69
2021/12/01 02:43:56;;;;;;;1.97;1.67;;;;;;;-0.05;100.00;-23813.81;5038284;28;20690;-67
2021/12/01 02:46:22;;;;;;;1.67;1.57;;;;;;;-0.25;100.00;-23807.94;5038295;28;20195;-68
2021/12/01 02:48:48;;;;;;;3.23;1.57;;;;;;;-0.16;100.00;-23810.66;5038385;28;20177;-69
2021/12/01 02:51:14;;;;;;;1.80;1.70;;;;;;;-0.36;100.00;-23804.94;5037854;28;20591;-68
2021/12/01 02:53:41;;;;;;;1.70;1.40;;;;;;;-0.39;100.00;-23804.06;5038198;28;20171;-69
2021/12/01 02:56:07;;;;;;;1.27;1.17;;;;;;;-0.34;100.00;-23805.38;5038124;28;20349;-69
2021/12/01 02:58:38;;;;;;;1.37;1.27;;;;;;;-0.02;100.00;-23814.69;5038376;28;20183;-69
2021/12/01 03:01:08;;;;;;;2.17;1.27;;;;;;;-0.24;100.00;-23808.38;5038251;28;20177;-69
2021/12/01 03:03:34;;;;;;;1.67;1.57;;;;;;;-0.26;100.00;-23807.81;5037787;28;20229;-69
2021/12/01 03:05:59;;;;;;;1.70;1.60;;;;;;;0.13;100.00;-23818.69;5038045;28;20211;-71
2021/12/01 03:08:25;;;;;;;2.50;2.03;;;;;;;0.06;100.00;-23816.81;5037783;28;20178;-67
2021/12/01 03:10:53;;;;;;;1.90;1.47;;;;;;;0.33;100.00;-23824.56;5037323;28;20192;-70
2021/12/01 03:13:21;;;;;;;2.80;1.87;;;;;;;-0.01;100.00;-23814.81;5038087;28;20233;-68
2021/12/01 03:15:46;;;;;;;2.30;1.40;;;;;;;0.32;100.00;-23824.28;5038286;28;20190;-68
2021/12/01 03:18:13;;;;;;;1.67;1.57;;;;;;;0.48;100.00;-23828.56;5037829;28;20191;-68
2021/12/01 03:20:39;;;;;;;2.07;1.50;;;;;;;0.15;100.00;-23819.25;5037178;28;20175;-67
2021/12/01 03:23:06;;;;;;;1.47;1.37;;;;;;;0.48;100.00;-23828.56;5034422;28;20665;-66
2021/12/01 03:25:32;;;;;;;1.20;1.17;;;;;;;0.57;100.00;-23831.28;5034815;28;20203;-67
2021/12/01 03:27:58;;;;;;;1.30;1.20;;;;;;;0.48;100.00;-23828.72;5034299;28;20569;-67
2021/12/01 03:30:23;;;;;;;1.40;1.30;;;;;;;0.75;100.00;-23836.28;5034864;28;20183;-68
2021/12/01 03:32:49;;;;;;;2.70;1.40;;;;;;;0.62;100.00;-23832.56;5033768;28;20187;-68
2021/12/01 03:35:15;;;;;;;1.47;1.37;;;;;;;0.86;100.00;-23839.59;5034279;28;20182;-68
2021/12/01 03:37:43;;;;;;;1.40;1.30;;;;;;;1.18;100.00;-23848.44;5033356;28;20288;-70
2021/12/01 03:40:09;;;;;;;1.40;1.30;;;;;;;1.12;100.00;-23846.72;5017080;28;20181;-70
2021/12/01 03:42:35;;;;;;;1.83;1.50;;;;;;;1.19;100.00;-23848.88;5034548;28;20177;-70
2021/12/01 03:45:00;;;;;;;2.80;1.57;;;;;;;1.35;100.00;-23853.31;5034327;28;20185;-68
2021/12/01 03:47:27;;;;;;;1.40;1.30;;;;;;;1.46;100.00;-23856.31;5034113;28;20175;-70
2021/12/01 03:49:53;;;;;;;1.87;1.50;;;;;;;1.48;100.00;-23857.03;5034399;28;20649;-70
2021/12/01 03:52:19;;;;;;;2.23;1.63;;;;;;;1.41;100.00;-23854.88;5031174;28;20281;-69
2021/12/01 03:54:47;;;;;;;2.10;1.60;;;;;;;1.28;100.00;-23851.31;5026894;28;20277;-71
2021/12/01 03:57:14;;;;;;;2.10;1.50;;;;;;;1.38;100.00;-23854.16;5033233;28;20223;-69
2021/12/01 03:59:40;;;;;;;2.40;2.17;;;;;;;1.40;100.00;-23854.75;5024551;28;20552;-70
2021/12/01 04:02:06;;;;;;;2.30;1.80;;;;;;;1.47;100.00;-23856.59;5033225;28;20183;-71
2021/12/01 04:04:31;;;;;;;2.33;1.80;;;;;;;1.49;100.00;-23857.31;5032640;28;20563;-71
2021/12/01 04:06:57;;;;;;;1.57;1.47;;;;;;;1.30;100.00;-23852.03;5032770;28;20249;-69
2021/12/01 04:09:23;;;;;;;2.07;1.80;;;;;;;1.48;100.00;-23857.03;5031883;28;20536;-70
2021/12/01 04:11:49;;;;;;;1.53;1.43;;;;;;;1.43;100.00;-23855.47;5033626;28;20201;-70
2021/12/01 04:14:14;;;;;;;1.53;1.43;;;;;;;1.53;100.00;-23858.31;5033777;28;20167;-69
2021/12/01 04:16:40;;;;;;;1.30;1.30;;;;;;;1.49;100.00;-23857.16;5032314;28;20223;-67
2021/12/01 04:19:06;;;;;;;2.90;1.77;;;;;;;1.25;100.00;-23850.59;5033964;28;20359;-71
2021/12/01 04:21:31;;;;;;;3.63;1.90;;;;;;;1.06;100.00;-23845.16;5033144;28;20565;-71
2021/12/01 04:23:57;;;;;;;2.53;1.80;;;;;;;1.10;100.00;-23846.16;5033600;28;20238;-70
2021/12/01 04:26:26;;;;;;;1.77;1.67;;;;;;;1.10;100.00;-23846.16;5032778;28;20297;-70
2021/12/01 04:28:54;;;;;;;4.40;2.33;;;;;;;1.38;100.00;-23854.03;5033086;28;20190;-70
2021/12/01 04:31:20;;;;;;;2.30;1.60;;;;;;;1.06;100.00;-23845.16;5064750;28;20179;-69
2021/12/01 04:33:46;;;;;;;2.43;1.67;;;;;;;1.11;100.00;-23846.44;5032814;28;20175;-68
2021/12/01 04:36:12;;;;;;;2.03;1.43;;;;;;;1.32;100.00;-23852.44;5033495;28;20171;-68
2021/12/01 04:38:37;;;;;;;2.60;1.60;;;;;;;1.17;100.00;-23848.16;5033646;28;20178;-70
2021/12/01 04:41:03;;;;;;;2.53;2.30;;;;;;;1.56;100.00;-23859.16;5033239;28;20185;-71
2021/12/01 04:43:29;;;;;;;2.03;1.47;;;;;;;1.47;100.00;-23856.75;5033087;28;20189;-67
2021/12/01 04:45:58;;;;;;;1.70;1.53;;;;;;;1.64;100.00;-23861.59;5032863;28;20203;-70
2021/12/01 04:48:28;;;;;;;1.40;1.30;;;;;;;1.67;100.00;-23862.47;5032616;28;20618;-71
2021/12/01 04:50:54;;;;;;;2.00;1.80;;;;;;;1.62;100.00;-23861.03;5033217;28;20202;-70
2021/12/01 04:53:20;;;;;;;1.53;1.40;;;;;;;1.64;100.00;-23861.59;5033419;28;20205;-71
2021/12/01 04:55:46;;;;;;;1.43;1.33;;;;;;;1.64;100.00;-23861.59;5032908;28;20678;-68
2021/12/01 04:58:11;;;;;;;2.07;1.80;;;;;;;1.26;100.00;-23850.72;5032396;28;20176;-71
2021/12/01 05:00:37;;;;;;;1.50;1.40;;;;;;;1.67;100.00;-23862.47;5032876;28;20174;-69
2021/12/01 05:03:04;;;;;;;1.63;1.53;;;;;;;1.20;100.00;-23849.16;5032625;28;20175;-68
2021/12/01 05:05:30;;;;;;;1.00;1.00;;;;;;;1.52;100.00;-23858.03;5032963;28;20192;-69
2021/12/01 05:07:56;;;;;;;1.70;1.37;;;;;;;1.25;100.00;-23850.44;5032277;28;20526;-71
2021/12/01 05:10:21;;;;;;;2.67;1.77;;;;;;;1.45;100.00;-23856.03;5032815;28;20258;-67
2021/12/01 05:12:47;;;;;;;2.07;1.37;;;;;;;1.10;100.00;-23846.16;5031437;28;20171;-70
2021/12/01 05:15:12;;;;;;;1.63;1.43;;;;;;;1.42;100.00;-23855.31;5032266;28;20708;-69
2021/12/01 05:17:38;;;;;;;1.93;1.40;;;;;;;1.06;100.00;-23845.03;5031453;28;20657;-69
2021/12/01 05:20:05;;;;;;;1.33;1.23;;;;;;;1.44;100.00;-23855.88;5031930;28;20179;-70
2021/12/01 05:22:31;;;;;;;1.97;1.77;;;;;;;1.11;100.00;-23846.44;5031110;28;20273;-71
2021/12/01 05:24:57;;;;;;;1.93;1.70;;;;;;;1.04;100.00;-23844.44;5030910;28;20194;-69
2021/12/01 05:27:23;;;;;;;2.10;1.30;;;;;;;1.28;100.00;-23851.44;5030153;28;20273;-67
2021/12/01 05:29:48;;;;;;;1.63;1.53;;;;;;;1.45;100.00;-23856.16;5031913;28;20199;-69
2021/12/01 05:32:15;;;;;;;1.67;1.57;;;;;;;1.43;100.00;-23855.47;5029381;28;20207;-71
2021/12/01 05:34:41;;;;;;;1.67;1.43;;;;;;;1.38;100.00;-23854.03;5026437;28;20585;-70
2021/12/01 05:37:06;;;;;;;3.00;1.90;;;;;;;1.39;100.00;-23854.31;5027392;28;20213;-69
2021/12/01 05:39:32;;;;;;;2.27;1.97;;;;;;;1.43;100.00;-23855.59;5064189;28;20198;-71
2021/12/01 05:41:59;;;;;;;1.80;1.70;;;;;;;1.34;100.00;-23853.16;5031468;28;20650;-68
2021/12/01 05:44:24;;;;;;;2.37;1.97;;;;;;;1.19;100.00;-23848.88;5031338;28;20202;-69
2021/12/01 05:46:50;;;;;;;1.33;1.27;;;;;;;1.47;100.00;-23856.59;5030555;28;20681;-66
2021/12/01 05:49:15;;;;;;;2.37;1.83;;;;;;;1.16;100.00;-23848.03;5031783;28;20214;-70
2021/12/01 05:51:42;;;;;;;1.50;1.40;;;;;;;1.52;100.00;-23858.16;5031397;28;20531;-67
2021/12/01 05:54:08;;;;;;;1.37;1.30;;;;;;;1.54;100.00;-23858.59;5031755;28;20162;-70
2021/12/01 05:56:33;;;;;;;1.33;1.27;;;;;;;1.36;100.00;-23853.44;5031492;28;20667;-71
2021/12/01 05:58:58;;;;;;;2.53;2.33;;;;;;;1.13;100.00;-23847.03;5031839;28;20213;-69
2021/12/01 06:01:24;;;;;;;1.40;1.30;;;;;;;1.29;100.00;-23851.75;5031291;28;20175;-69
2021/12/01 06:03:50;;;;;;;2.50;1.70;;;;;;;1.52;100.00;-23858.16;5031704;28;20187;-69
2021/12/01 06:06:15;;;;;;;1.47;1.37;;;;;;;1.26;100.00;-23850.88;5030434;28;20199;-71
2021/12/01 06:08:42;;;;;;;1.57;1.43;;;;;;;1.58;100.00;-23859.75;5031934;28;20174;-71
2021/12/01 06:11:07;;;;;;;1.47;1.37;;;;;;;1.54;100.00;-23858.59;5030868;28;20651;-71
2021/12/01 06:13:33;;;;;;;2.50;1.33;;;;;;;1.58;100.00;-23859.88;5030578;28;20168;-69
2021/12/01 06:15:58;;;;;;;2.23;1.90;;;;;;;1.54;100.00;-23858.75;5031194;28;20179;-71
2021/12/01 06:18:24;;;;;;;1.87;1.57;;;;;;;1.76;100.00;-23865.03;5031287;28;20632;-70
2021/12/01 06:20:49;;;;;;;1.57;1.47;;;;;;;1.44;100.00;-23855.88;5031353;28;20633;-71
2021/12/01 06:23:15;;;;;;;2.03;1.83;;;;;;;1.36;100.00;-23853.59;5031206;28;20182;-68
2021/12/01 06:25:41;;;;;;;1.97;1.63;;;;;;;1.40;100.00;-23854.75;5031233;28;20198;-67
2021/12/01 06:28:06;;;;;;;1.50;1.40;;;;;;;1.84;100.00;-23867.03;5031128;28;20250;-73
2021/12/01 06:30:34;;;;;;;3.10;1.90;;;;;;;1.94;100.00;-23870.03;5031264;28;20241;-69
2021/12/01 06:33:01;;;;;;;1.97;1.67;;;;;;;1.78;100.00;-23865.47;5030476;28;20191;-70
2021/12/01 06:35:26;;;;;;;1.70;1.60;;;;;;;2.03;100.00;-23872.59;5030521;28;20595;-70
2021/12/01 06:37:54;;;;;;;3.37;2.47;;;;;;;2.07;100.00;-23873.75;5027091;28;20179;-72
2021/12/01 06:40:21;;;;;;;2.03;1.70;;;;;;;2.31;100.00;-23880.31;5028286;28;20183;-71
2021/12/01 06:42:47;;;;;;;1.70;1.60;;;;;;;2.76;100.00;-23893.00;5029372;28;20187;-72
2021/12/01 06:45:13;;;;;;;1.60;1.50;;;;;;;2.97;100.00;-23899.00;5030868;28;20176;-72
2021/12/01 06:47:40;;;;;;;2.10;1.90;;;;;;;3.05;100.00;-23901.44;5028399;28;20557;-70
2021/12/01 06:50:07;;;;;;;2.03;1.60;;;;;;;3.09;99.83;-23902.44;5026598;28;20266;-68
2021/12/01 06:52:33;;;;;;;1.97;1.63;;;;;;;3.43;97.00;-23912.13;5026828;28;20187;-69
2021/12/01 06:54:59;;;;;;;1.40;1.30;;;;;;;3.75;96.08;-23921.09;5023872;28;20226;-72
2021/12/01 06:57:25;;;;;;;1.50;1.40;;;;;;;3.78;93.37;-23921.81;5029717;28;20215;-71
2021/12/01 06:59:51;;;;;;;1.67;1.57;;;;;;;4.19;94.24;-23933.50;5033383;28;20198;-70
2021/12/01 07:02:17;;;;;;;2.17;1.73;;;;;;;4.24;94.69;-23934.91;5031782;28;20266;-70
2021/12/01 07:04:44;;;;;;;1.23;1.13;;;;;;;4.71;93.29;-23948.16;5029875;28;20558;-69
2021/12/01 07:07:10;;;;;;;1.20;1.10;;;;;;;4.55;93.09;-23943.47;5032675;28;20238;-71
2021/12/01 07:09:35;;;;;;;1.50;1.40;;;;;;;4.98;90.80;-23955.56;5034336;28;20190;-71
2021/12/01 07:12:01;;;;;;;2.00;1.60;;;;;;;4.94;90.14;-23954.41;5035409;28;20175;-68
2021/12/01 07:14:27;;;;;;;1.87;1.50;;;;;;;4.91;88.72;-23953.72;5030643;28;20192;-67
2021/12/01 07:16:54;;;;;;;1.83;1.50;;;;;;;4.65;87.63;-23946.44;5028697;28;20210;-69
2021/12/01 07:19:19;;;;;;;1.57;1.47;;;;;;;5.03;86.65;-23956.97;5034503;28;20183;-68
2021/12/01 07:21:45;;;;;;;1.50;1.40;;;;;;;5.06;86.62;-23957.97;5033854;28;20191;-70
2021/12/01 07:24:10;;;;;;;1.70;1.57;;;;;;;5.44;87.11;-23968.50;5032523;28;20191;-69
2021/12/01 07:26:36;;;;;;;1.60;1.50;;;;;;;5.12;86.35;-23959.69;5034732;28;20548;-70
2021/12/01 07:29:01;;;;;;;1.47;1.37;;;;;;;5.41;88.28;-23967.78;5034649;28;20210;-71
2021/12/01 07:31:27;;;;;;;1.60;1.50;;;;;;;5.45;86.89;-23968.78;5031547;28;20175;-71
2021/12/01 07:33:52;;;;;;;1.70;1.60;;;;;;;5.56;86.18;-23971.91;5032895;28;20188;-71
2021/12/01 07:36:18;;;;;;;1.53;1.43;;;;;;;5.45;86.11;-23968.78;5031981;28;20187;-72
2021/12/01 07:38:43;;;;;;;1.50;1.40;;;;;;;5.42;86.22;-23967.94;5030969;28;20269;-69
2021/12/01 07:41:09;;;;;;;1.37;1.27;;;;;;;5.67;85.16;-23975.03;5032424;28;20183;-72
2021/12/01 07:43:34;;;;;;;2.77;1.30;;;;;;;5.71;85.56;-23976.16;5030524;28;20183;-72
2021/12/01 07:46:01;;;;;;;1.13;1.13;;;;;;;5.71;84.84;-23976.16;5031026;28;20199;-72
2021/12/01 07:48:27;;;;;;;2.10;1.43;;;;;;;5.75;84.01;-23977.44;5028921;28;20563;-70
2021/12/01 07:50:53;;;;;;;1.47;1.30;;;;;;;6.09;82.66;-23986.97;5032371;28;20192;-69
2021/12/01 07:53:19;;;;;;;2.03;1.50;;;;;;;6.17;82.68;-23989.09;5033176;28;20186;-68
2021/12/01 07:55:44;;;;;;;1.20;1.10;;;;;;;6.07;81.93;-23986.41;5033460;28;20236;-69
2021/12/01 07:58:11;;;;;;;1.43;1.33;;;;;;;6.03;81.03;-23985.13;5032491;28;20199;-69
2021/12/01 08:00:37;;;;;;;1.00;1.00;;;;;;;6.40;81.57;-23995.50;5033963;28;20207;-69
2021/12/01 08:03:03;;;;;;;1.60;1.17;;;;;;;6.20;80.50;-23990.09;5033754;28;20181;-69
2021/12/01 08:05:29;;;;;;;1.67;1.53;;;;;;;6.51;79.31;-23998.75;5033877;28;20187;-69
2021/12/01 08:07:55;;;;;;;2.17;1.13;;;;;;;6.27;80.14;-23991.81;5032946;28;20171;-71
2021/12/01 08:10:21;;;;;;;1.40;1.20;;;;;;;6.61;80.11;-24001.47;5034019;28;20251;-69
2021/12/01 08:12:47;;;;;;;1.33;1.20;;;;;;;6.65;79.52;-24002.72;5033560;28;20198;-70
2021/12/01 08:15:13;;;;;;;2.00;1.40;;;;;;;6.74;79.91;-24005.16;5034151;28;20175;-71
2021/12/01 08:17:38;;;;;;;1.60;1.50;;;;;;;6.81;80.01;-24007.00;5033887;28;20252;-69
2021/12/01 08:20:04;;;;;;;1.50;1.40;;;;;;;6.85;79.86;-24008.25;5033431;28;20179;-68
2021/12/01 08:22:30;;;;;;;1.37;1.27;;;;;;;6.83;79.92;-24007.56;5032129;28;20190;-68
2021/12/01 08:24:57;;;;;;;1.07;1.00;;;;;;;6.60;79.95;-24001.31;5033776;28;20224;-69
2021/12/01 08:27:24;;;;;;;1.70;1.60;;;;;;;7.00;78.79;-24012.53;5033608;28;20626;-69
2021/12/01 08:29:50;;;;;;;1.60;1.50;;;;;;;7.01;77.63;-24012.81;5033316;28;20178;-70
2021/12/01 08:32:15;;;;;;;1.47;1.37;;;;;;;6.91;77.22;-24009.97;5033356;28;20171;-68
2021/12/01 08:34:41;;;;;;;3.87;1.43;;;;;;;7.26;76.90;-24019.63;5033427;28;20176;-71
2021/12/01 08:37:08;;;;;;;1.67;1.37;;;;;;;7.39;76.74;-24023.44;5048572;28;20215;-69
2021/12/01 08:39:34;;;;;;;1.30;1.20;;;;;;;7.47;77.81;-24025.56;5033202;28;20171;-71
2021/12/01 08:42:00;;;;;;;1.13;1.10;;;;;;;7.36;78.60;-24022.44;5032481;28;20233;-70
2021/12/01 08:44:26;;;;;;;1.40;1.30;;;;;;;7.55;76.13;-24027.84;5032151;28;20266;-67
2021/12/01 08:46:51;;;;;;;2.13;1.50;;;;;;;7.68;73.39;-24031.53;5033201;28;20210;-68
2021/12/01 08:49:16;;;;;;;1.30;1.20;;;;;;;7.81;73.64;-24035.22;5032730;28;20194;-67
2021/12/01 08:51:42;;;;;;;1.53;1.43;;;;;;;7.92;72.42;-24038.31;5030336;28;20187;-68
2021/12/01 08:54:13;;;;;;;1.30;1.20;;;;;;;8.24;72.19;-24047.25;5018268;28;20192;-70
2021/12/01 08:56:39;;;;;;;1.10;1.10;;;;;;;8.09;72.58;-24043.00;5012081;28;20769;-68
2021/12/01 08:59:04;;;;;;;1.40;1.30;;;;;;;8.58;71.47;-24056.59;5011559;28;20275;-67
2021/12/01 09:01:30;;;;;;;1.20;1.10;;;;;;;8.76;70.55;-24061.81;5013206;28;20631;-69
2021/12/01 09:03:55;;;;;;;1.30;1.20;;;;;;;8.92;71.20;-24066.06;5012773;28;20643;-69
2021/12/01 09:06:21;;;;;;;1.40;1.30;;;;;;;9.04;68.30;-24069.59;5013339;28;20207;-69
2021/12/01 09:08:46;;;;;;;1.23;1.17;;;;;;;9.26;64.27;-24075.81;5013166;28;20165;-68
2021/12/01 09:11:11;;;;;;;3.27;1.20;;;;;;;9.32;63.21;-24077.38;5029260;28;20260;-70
2021/12/01 09:13:37;;;;;;;1.23;0.98;;;;;;;9.14;63.74;-24072.28;5031916;28;20217;-70
2021/12/01 09:16:03;;;;;;;1.10;1.10;;;;;;;9.60;65.36;-24085.16;5032196;28;20226;-68
2021/12/01 09:18:30;;;;;;;1.30;1.20;;;;;;;9.36;66.94;-24078.38;5031854;28;20236;-69
2021/12/01 09:20:57;;;;;;;1.95;1.20;;;;;;;9.73;68.39;-24088.81;5032061;28;20183;-69
2021/12/01 09:23:23;;;;;;;1.17;1.08;;;;;;;9.92;68.46;-24094.06;5032745;28;20214;-69
2021/12/01 09:25:49;;;;;;;1.48;1.08;;;;;;;10.06;67.77;-24098.16;5030545;28;20745;-70
2021/12/01 09:28:17;;;;;;;1.13;1.02;;;;;;;9.96;67.21;-24095.31;5024908;28;20191;-70
2021/12/01 09:30:44;;;;;;;1.65;1.30;;;;;;;10.27;66.85;-24103.78;5031957;28;20267;-70
2021/12/01 09:33:09;;;;;;;1.20;1.10;;;;;;;10.11;65.52;-24099.41;5031867;28;20171;-70
2021/12/01 09:35:35;;;;;;;1.13;1.08;;;;;;;10.40;66.53;-24107.63;5064988;28;20682;-69
2021/12/01 09:38:00;;;;;;;2.60;1.20;;;;;;;10.38;65.12;-24106.91;5031963;28;20172;-71
2021/12/01 09:40:26;;;;;;;2.08;1.38;;;;;;;10.21;64.17;-24102.09;5031538;28;20191;-70
2021/12/01 09:42:52;;;;;;;1.30;1.20;;;;;;;10.40;63.41;-24107.63;5032584;28;20175;-70
2021/12/01 09:45:22;;;;;;;1.60;1.50;;;;;;;10.38;63.84;-24106.91;5032501;28;20183;-68
2021/12/01 09:47:49;;;;;;;1.40;1.17;;;;;;;10.10;63.93;-24099.28;5032241;28;20183;-70
2021/12/01 09:50:16;;;;;;;1.63;1.52;;;;;;;10.39;62.87;-24107.31;5032440;28;20178;-68
2021/12/01 09:52:42;;;;;;;1.30;1.20;;;;;;;10.15;62.70;-24100.69;5031273;28;20328;-69
2021/12/01 09:55:08;;;;;;;1.58;1.38;;;;;;;10.36;64.14;-24106.47;5032260;28;20191;-69
2021/12/01 09:57:34;;;;;;;1.63;1.35;;;;;;;10.39;63.02;-24107.31;5032101;28;20266;-69
2021/12/01 10:00:00;;;;;;;1.30;1.20;;;;;;;10.50;62.02;-24110.28;5032441;28;20265;-70
2021/12/01 10:02:26;;;;;;;1.88;1.42;;;;;;;10.75;62.08;-24117.19;5032137;28;20729;-67
2021/12/01 10:04:52;;;;;;;1.30;1.20;;;;;;;10.61;62.29;-24113.41;5032562;28;20350;-71
2021/12/01 10:07:19;;;;;;;2.05;1.23;;;;;;;10.90;61.95;-24121.56;5032180;28;20213;-68
2021/12/01 10:09:50;;;;;;;1.42;1.30;;;;;;;10.62;62.35;-24113.69;5031725;28;20179;-69
2021/12/01 10:12:16;;;;;;;1.50;1.40;;;;;;;10.70;63.94;-24115.94;5032020;28;20273;-71
2021/12/01 10:14:46;;;;;;;1.23;1.13;;;;;;;10.69;63.08;-24115.50;5032055;28;20236;-72
2021/12/01 10:17:12;;;;;;;1.20;1.05;;;;;;;10.78;62.44;-24118.03;5030319;28;20201;-70
2021/12/01 10:19:37;;;;;;;1.05;1.00;;;;;;;10.83;62.99;-24119.59;5027310;28;20648;-71
2021/12/01 10:22:09;;;;;;;1.75;1.30;;;;;;;10.73;64.09;-24116.63;5030804;28;20229;-69
2021/12/01 10:24:36;;;;;;;1.40;1.30;;;;;;;10.80;64.61;-24118.75;5031268;28;20198;-68
2021/12/01 10:27:08;;;;;;;1.27;1.20;;;;;;;10.98;66.27;-24123.69;5031641;28;20242;-70
2021/12/01 10:29:43;;;;;;;1.10;1.00;;;;;;;11.10;64.61;-24126.94;5031306;28;20230;-70
2021/12/01 10:32:19;;;;;;;1.08;0.98;;;;;;;11.12;65.55;-24127.63;5034784;28;20183;-71
2021/12/01 10:34:49;;;;;;;0.90;0.88;;;;;;;10.74;65.33;-24117.06;5034757;28;20270;-71
2021/12/01 10:37:26;;;;;;;1.30;1.20;;;;;;;11.20;66.35;-24129.88;5035543;28;20175;-69
2021/12/01 10:40:10;;;;;;;1.70;1.33;;;;;;;11.30;66.44;-24132.56;5015506;28;20200;-66
2021/12/01 10:42:50;;;;;;;1.63;1.50;;;;;;;11.35;65.60;-24134.13;5023707;28;20198;-68
2021/12/01 10:45:19;;;;;;;1.73;1.30;;;;;;;11.16;65.79;-24128.63;5035727;28;20171;-68
2021/12/01 10:47:44;;;;;;;1.30;1.20;;;;;;;11.11;66.13;-24127.34;5035487;28;20663;-69
2021/12/01 10:50:13;;;;;;;2.50;1.48;;;;;;;11.22;65.71;-24130.31;5035098;28;20172;-70
2021/12/01 10:52:42;;;;;;;1.10;1.00;;;;;;;11.14;65.42;-24128.19;5035948;28;20179;-70
2021/12/01 10:55:08;;;;;;;1.38;1.27;;;;;;;11.41;65.68;-24135.81;5035191;28;20160;-70
2021/12/01 10:57:44;;;;;;;1.23;1.13;;;;;;;11.49;65.89;-24138.06;5035262;28;20160;-71
2021/12/01 11:00:17;;;;;;;1.85;1.13;;;;;;;11.59;66.02;-24140.59;5035362;28;20178;-70
2021/12/01 11:02:43;;;;;;;1.10;1.00;;;;;;;11.73;67.11;-24144.56;5050396;28;20555;-69
2021/12/01 11:05:09;;;;;;;1.48;1.23;;;;;;;11.62;67.58;-24141.44;5035271;28;20171;-70
2021/12/01 11:07:34;;;;;;;1.33;1.23;;;;;;;11.56;66.19;-24139.75;5035258;28;20297;-69
2021/12/01 11:10:10;;;;;;;1.00;1.00;;;;;;;11.87;66.85;-24148.63;5035207;28;20172;-70
2021/12/01 11:12:36;;;;;;;1.27;1.17;;;;;;;11.93;66.61;-24150.31;5035014;28;20167;-68
2021/12/01 11:15:21;;;;;;;1.30;1.20;;;;;;;12.05;64.75;-24153.56;5034929;28;20206;-70
2021/12/01 11:17:48;;;;;;;1.27;1.17;;;;;;;12.07;64.28;-24154.13;5035223;28;20174;-69
2021/12/01 11:20:45;;;;;;;1.15;1.08;;;;;;;12.05;64.62;-24153.41;5034520;28;20167;-70
2021/12/01 11:23:22;;;;;;;1.48;1.20;;;;;;;12.02;64.61;-24152.72;5034790;28;20201;-71
2021/12/01 11:25:56;;;;;;;0.90;0.90;;;;;;;12.04;64.11;-24153.28;5034277;28;20197;-69
2021/12/01 11:28:26;;;;;;;1.30;1.20;;;;;;;11.97;65.27;-24151.16;5034667;28;20183;-69
2021/12/01 11:30:55;;;;;;;1.10;1.00;;;;;;;12.13;66.34;-24155.81;5034714;28;20262;-71